Portland, Oregon
Traffic Map
Current Weather Conditions
Portland, Oregon
Few Clouds
Few Clouds
60°
Feels Like: 60°
Wind Chill: 60° Ceiling: Unl
Heat Index: 60° Visibility: 10mi
Dew Point: 46° Wind: 10mph
Humidity: 60% Direction: 320° (NW)
Pressure: 30.06in Gusts: 0mph
Raw Report DataKPDX 280653Z 32009KT 10SM FEW200 16/08 A3006 RMK AO2 SLP176 T01560078
Traffic Incident Summary
Active as of:
Severity:
Category:
InformationThere was an issue retrieving the traffic information for this location. Please try a different location or try again shortly.
Advertisements
Track Severe Weather on mobile